Time;durP1;ratioP1;P1;durP2;ratioP2;P2;SDS_P1;SDS_P2;PMS_P1;PMS_P2;Temp;Humidity;BMP_temperature;BMP_pressure;BME280_temperature;BME280_humidity;BME280_pressure;Samples;Min_cycle;Max_cycle;Signal;HPM_P1;HPM_P2
2022/01/04 00:01:34;;;;;;;3.65;1.42;;;10.50;68.10;;;;;;5136042;27;20039;-73
2022/01/04 00:04:00;;;;;;;3.63;1.67;;;10.60;68.20;;;;;;5123307;27;20114;-73
2022/01/04 00:06:26;;;;;;;2.35;1.60;;;10.60;68.80;;;;;;5129164;27;20028;-73
2022/01/04 00:08:55;;;;;;;3.75;1.50;;;10.60;68.10;;;;;;5115187;27;20206;-73
2022/01/04 00:11:32;;;;;;;3.75;1.48;;;10.60;68.10;;;;;;5148983;27;20034;-73
2022/01/04 00:13:57;;;;;;;6.22;1.70;;;10.60;68.10;;;;;;5134551;27;20042;-73
2022/01/04 00:16:23;;;;;;;2.22;1.70;;;10.60;68.30;;;;;;5138476;27;20038;-73
2022/01/04 00:18:49;;;;;;;3.67;1.55;;;10.60;68.30;;;;;;5122857;27;20031;-73
2022/01/04 00:21:14;;;;;;;4.63;1.60;;;10.70;68.20;;;;;;5126886;27;20066;-73
2022/01/04 00:23:40;;;;;;;3.85;1.55;;;10.70;68.40;;;;;;5120781;27;20031;-74
2022/01/04 00:26:05;;;;;;;5.65;1.67;;;10.70;69.00;;;;;;5126158;27;20357;-74
2022/01/04 00:28:31;;;;;;;2.25;1.55;;;10.70;68.30;;;;;;5120545;27;20379;-73
2022/01/04 00:30:57;;;;;;;4.55;1.52;;;10.70;68.40;;;;;;5138238;27;20031;-74
2022/01/04 00:33:23;;;;;;;2.75;1.55;;;10.70;68.30;;;;;;5134532;27;20027;-73
2022/01/04 00:35:49;;;;;;;3.55;1.35;;;10.70;68.20;;;;;;5104667;27;20023;-74
2022/01/04 00:38:16;;;;;;;4.75;1.60;;;10.70;68.30;;;;;;5107528;27;20027;-73
2022/01/04 00:40:41;;;;;;;2.22;1.40;;;10.80;68.50;;;;;;5128377;27;20035;-74
2022/01/04 00:43:07;;;;;;;3.35;1.50;;;10.80;68.50;;;;;;5118450;27;20513;-73
2022/01/04 00:45:36;;;;;;;5.90;1.60;;;10.80;68.30;;;;;;5139885;27;20102;-73
2022/01/04 00:50:30;;;;;;;3.25;1.40;;;10.80;68.40;;;;;;5138645;27;20035;-73
2022/01/04 00:52:57;;;;;;;3.42;1.60;;;10.80;68.40;;;;;;5141312;27;20105;-73
2022/01/04 00:55:24;;;;;;;4.47;1.40;;;10.80;68.50;;;;;;5137451;27;20043;-73
2022/01/04 00:57:49;;;;;;;4.13;1.80;;;10.80;68.60;;;;;;5143063;27;20385;-74
2022/01/04 01:00:17;;;;;;;3.72;1.38;;;10.80;68.50;;;;;;5134394;27;20039;-73
2022/01/04 01:02:43;;;;;;;2.97;1.33;;;10.80;68.50;;;;;;5128944;27;20034;-73
2022/01/04 01:05:10;;;;;;;3.88;1.95;;;10.80;68.70;;;;;;5133199;27;20483;-74
2022/01/04 01:07:36;;;;;;;4.45;1.30;;;10.80;68.80;;;;;;5127222;27;20141;-74
2022/01/04 01:12:33;;;;;;;1.85;1.15;;;10.80;68.70;;;;;;5131700;27;20111;-73
2022/01/04 01:14:59;;;;;;;2.20;1.38;;;10.80;68.70;;;;;;5120853;27;20066;-74
2022/01/04 01:17:24;;;;;;;2.63;1.60;;;10.80;68.90;;;;;;5132347;27;20062;-73
2022/01/04 01:19:50;;;;;;;4.22;1.42;;;10.80;68.90;;;;;;5130276;27;20023;-74
2022/01/04 01:22:16;;;;;;;2.85;1.48;;;10.80;68.90;;;;;;5129327;27;20035;-73
2022/01/04 01:24:41;;;;;;;4.40;1.67;;;10.80;69.00;;;;;;5115747;27;20022;-73
2022/01/04 01:27:07;;;;;;;2.40;1.40;;;10.80;68.70;;;;;;5132297;27;20031;-73
2022/01/04 01:29:33;;;;;;;2.20;1.23;;;10.80;69.20;;;;;;5132012;27;20023;-72
2022/01/04 01:31:59;;;;;;;4.13;1.48;;;10.80;69.10;;;;;;5111205;27;20042;-73
2022/01/04 01:34:24;;;;;;;4.57;1.52;;;10.80;69.20;;;;;;5136122;27;20026;-73
2022/01/04 01:36:51;;;;;;;2.45;1.40;;;10.80;69.10;;;;;;5116551;27;20502;-73
2022/01/04 01:39:17;;;;;;;2.55;1.30;;;10.80;69.00;;;;;;5130441;27;20024;-74
2022/01/04 01:41:42;;;;;;;4.53;1.35;;;10.80;69.30;;;;;;5131695;27;20076;-73
2022/01/04 01:44:09;;;;;;;3.55;1.40;;;10.90;69.10;;;;;;5128506;27;20072;-73
2022/01/04 01:46:35;;;;;;;2.90;1.15;;;10.90;69.20;;;;;;5137932;27;20025;-73
2022/01/04 01:49:00;;;;;;;3.97;1.48;;;10.90;69.20;;;;;;5124332;27;20110;-73
2022/01/04 01:51:28;;;;;;;5.35;1.25;;;10.90;69.10;;;;;;5131476;27;20054;-73
2022/01/04 01:53:54;;;;;;;5.38;1.52;;;10.90;69.20;;;;;;5117715;27;20088;-73
2022/01/04 01:56:19;;;;;;;2.58;1.40;;;10.90;69.30;;;;;;5124861;27;20463;-73
2022/01/04 01:58:45;;;;;;;2.58;1.30;;;10.90;69.20;;;;;;5140122;27;20486;-73
2022/01/04 02:01:11;;;;;;;1.80;1.10;;;10.90;69.20;;;;;;5107979;27;20047;-73
2022/01/04 02:03:38;;;;;;;3.58;1.30;;;10.90;69.10;;;;;;5140212;27;20022;-73
2022/01/04 02:06:04;;;;;;;4.28;1.50;;;11.00;69.30;;;;;;5137677;27;20039;-73
2022/01/04 02:08:30;;;;;;;2.60;1.30;;;11.00;69.30;;;;;;5140554;27;20027;-73
2022/01/04 02:10:57;;;;;;;2.28;1.27;;;11.00;69.30;;;;;;5140655;27;20094;-73
2022/01/04 02:13:24;;;;;;;3.13;1.20;;;11.00;69.40;;;;;;5134763;27;20035;-73
2022/01/04 02:15:53;;;;;;;4.15;1.10;;;11.00;69.40;;;;;;5136136;27;20030;-73
2022/01/04 02:18:19;;;;;;;3.47;1.30;;;11.00;69.50;;;;;;5114062;27;20468;-73
2022/01/04 02:20:44;;;;;;;2.08;1.10;;;11.00;69.20;;;;;;5132592;27;20131;-73
2022/01/04 02:23:10;;;;;;;1.33;1.00;;;11.10;69.30;;;;;;5136564;27;20030;-73
2022/01/04 02:25:36;;;;;;;1.55;1.30;;;11.10;69.30;;;;;;5125076;27;20046;-73
2022/01/04 02:28:02;;;;;;;1.58;1.10;;;11.00;69.20;;;;;;5124644;27;20031;-73
2022/01/04 02:30:27;;;;;;;2.17;1.50;;;11.10;69.30;;;;;;5122382;27;20043;-73
2022/01/04 02:32:53;;;;;;;4.28;1.48;;;11.10;69.20;;;;;;5145810;27;20026;-73
2022/01/04 02:35:23;;;;;;;5.20;1.60;;;11.10;69.20;;;;;;5123992;27;20030;-73
2022/01/04 02:37:49;;;;;;;3.60;1.65;;;11.10;69.20;;;;;;5116271;27;20023;-73
2022/01/04 02:40:15;;;;;;;2.70;1.40;;;11.10;69.20;;;;;;5139322;27;20029;-73
2022/01/04 02:42:41;;;;;;;3.13;1.75;;;11.10;69.20;;;;;;5129850;27;20079;-73
2022/01/04 02:45:08;;;;;;;1.30;1.13;;;11.20;69.20;;;;;;5140616;27;20031;-73
2022/01/04 02:47:34;;;;;;;2.67;1.20;;;11.20;69.20;;;;;;5144339;27;20023;-73
2022/01/04 02:50:00;;;;;;;3.38;1.60;;;11.20;69.20;;;;;;5142707;27;20386;-73
2022/01/04 02:52:27;;;;;;;3.75;1.40;;;11.20;69.10;;;;;;5141370;27;20031;-74
2022/01/04 02:54:53;;;;;;;4.25;1.50;;;11.20;69.10;;;;;;5103572;27;20032;-74
2022/01/04 02:57:19;;;;;;;2.95;1.55;;;11.20;69.10;;;;;;5136878;27;20072;-73
2022/01/04 02:59:45;;;;;;;3.15;1.38;;;11.20;69.10;;;;;;5140025;27;20068;-73
2022/01/04 03:02:11;;;;;;;5.45;1.45;;;11.20;69.00;;;;;;5125986;27;20069;-73
2022/01/04 03:04:36;;;;;;;6.95;1.42;;;11.20;68.90;;;;;;5139768;27;20106;-73
2022/01/04 03:07:03;;;;;;;2.42;1.33;;;11.20;69.00;;;;;;5141568;27;20027;-73
2022/01/04 03:09:29;;;;;;;2.47;1.30;;;11.20;68.90;;;;;;5135819;27;20046;-73
2022/01/04 03:11:56;;;;;;;1.50;1.10;;;11.20;69.00;;;;;;5142832;27;20426;-73
2022/01/04 03:14:22;;;;;;;1.92;1.50;;;11.30;69.10;;;;;;5140187;27;20019;-73
2022/01/04 03:16:48;;;;;;;3.60;1.40;;;11.10;68.90;;;;;;5136206;27;20057;-73
2022/01/04 03:19:14;;;;;;;1.60;1.20;;;11.10;68.70;;;;;;5136756;27;20019;-73
2022/01/04 03:21:42;;;;;;;1.95;1.40;;;11.10;68.90;;;;;;5135693;27;20046;-74
2022/01/04 03:24:10;;;;;;;2.00;1.40;;;11.10;68.80;;;;;;5137255;27;20022;-74
2022/01/04 03:26:37;;;;;;;4.50;1.58;;;11.10;68.80;;;;;;5135835;27;20091;-73
2022/01/04 03:29:04;;;;;;;1.40;1.05;;;11.10;68.80;;;;;;5122248;27;20390;-73
2022/01/04 03:31:30;;;;;;;3.03;1.23;;;11.20;68.70;;;;;;5114367;27;20480;-74
2022/01/04 03:33:56;;;;;;;3.70;1.45;;;11.20;68.80;;;;;;5127363;27;20098;-73
2022/01/04 03:36:24;;;;;;;3.38;1.10;;;11.20;68.80;;;;;;5133063;27;20023;-73
2022/01/04 03:38:52;;;;;;;2.22;1.20;;;11.20;68.90;;;;;;5132297;27;20020;-73
2022/01/04 03:41:19;;;;;;;3.83;1.40;;;11.20;68.90;;;;;;5128260;27;20491;-73
2022/01/04 03:43:45;;;;;;;1.80;1.10;;;11.20;68.90;;;;;;5131517;27;20059;-74
2022/01/04 03:46:11;;;;;;;3.15;1.23;;;11.20;68.80;;;;;;5136032;27;20102;-73
2022/01/04 03:48:37;;;;;;;2.85;1.08;;;11.20;68.90;;;;;;5114777;27;20023;-73
2022/01/04 03:51:05;;;;;;;3.90;1.20;;;11.20;68.90;;;;;;5131894;27;20493;-74
2022/01/04 03:53:30;;;;;;;3.33;1.30;;;11.20;69.00;;;;;;5100533;27;20386;-73
2022/01/04 03:55:57;;;;;;;2.40;1.13;;;11.20;69.10;;;;;;5133010;27;20034;-73
2022/01/04 03:58:23;;;;;;;5.68;1.40;;;11.20;69.10;;;;;;5119977;27;20031;-73
2022/01/04 04:00:49;;;;;;;3.38;1.33;;;11.20;69.10;;;;;;5142879;27;20115;-74
2022/01/04 04:03:15;;;;;;;7.93;1.52;;;11.20;69.30;;;;;;5138400;27;20050;-73
2022/01/04 04:05:41;;;;;;;3.53;1.20;;;11.20;69.40;;;;;;5144262;27;20382;-73
2022/01/04 04:08:06;;;;;;;2.42;1.30;;;11.20;69.40;;;;;;5126012;27;20045;-73
2022/01/04 04:10:32;;;;;;;3.60;1.35;;;11.20;69.50;;;;;;5126499;27;20023;-73
2022/01/04 04:12:58;;;;;;;2.55;1.30;;;11.20;69.50;;;;;;5135128;27;20482;-73
2022/01/04 04:15:24;;;;;;;4.80;1.58;;;11.20;69.50;;;;;;5133408;27;20141;-73
2022/01/04 04:17:49;;;;;;;2.50;1.58;;;11.20;69.50;;;;;;5133183;27;20054;-73
2022/01/04 04:20:15;;;;;;;4.40;1.55;;;11.20;69.50;;;;;;5134239;27;20031;-73
2022/01/04 04:22:41;;;;;;;3.38;1.42;;;11.20;69.40;;;;;;5126413;27;20023;-73
2022/01/04 04:25:07;;;;;;;5.13;1.50;;;11.20;69.50;;;;;;5133161;27;20023;-73
2022/01/04 04:27:33;;;;;;;3.65;2.00;;;11.20;69.50;;;;;;5119979;27;20055;-72
2022/01/04 04:29:59;;;;;;;6.25;1.90;;;11.20;69.50;;;;;;5132225;27;20482;-72
2022/01/04 04:32:25;;;;;;;5.40;2.03;;;11.20;69.60;;;;;;5116360;27;20514;-72
2022/01/04 04:34:51;;;;;;;2.47;1.58;;;11.20;69.50;;;;;;5141545;27;20035;-73
2022/01/04 04:37:16;;;;;;;2.67;1.73;;;11.10;69.50;;;;;;5131930;27;20440;-73
2022/01/04 04:39:42;;;;;;;7.25;1.65;;;11.10;69.40;;;;;;5137142;27;20059;-72
2022/01/04 04:42:08;;;;;;;6.72;1.60;;;11.10;69.30;;;;;;5135287;27;20479;-72
2022/01/04 04:44:34;;;;;;;2.78;1.83;;;11.10;69.40;;;;;;5130200;27;20023;-72
2022/01/04 04:46:59;;;;;;;3.05;1.50;;;11.10;69.50;;;;;;5138556;27;20379;-72
2022/01/04 04:49:25;;;;;;;2.17;1.70;;;11.10;69.60;;;;;;5138340;27;20054;-72
2022/01/04 04:51:51;;;;;;;3.22;1.58;;;11.10;69.60;;;;;;5130602;27;20031;-72
2022/01/04 04:54:16;;;;;;;3.45;1.52;;;11.10;69.80;;;;;;5133271;27;20026;-72
2022/01/04 04:56:42;;;;;;;3.40;1.90;;;11.10;69.80;;;;;;5139188;27;20041;-72
2022/01/04 04:59:09;;;;;;;4.13;2.25;;;11.10;69.70;;;;;;5139151;27;20028;-72
2022/01/04 05:01:35;;;;;;;4.43;2.03;;;11.10;69.70;;;;;;5140669;27;20484;-72
2022/01/04 05:04:01;;;;;;;2.22;1.70;;;11.10;69.80;;;;;;5122243;27;20110;-72
2022/01/04 05:06:27;;;;;;;5.13;1.65;;;11.10;69.80;;;;;;5142966;27;20035;-72
2022/01/04 05:08:53;;;;;;;1.38;1.20;;;11.00;69.90;;;;;;5135909;27;20026;-72
2022/01/04 05:11:19;;;;;;;1.65;1.20;;;11.10;70.00;;;;;;5141394;27;20074;-72
2022/01/04 05:13:45;;;;;;;10.57;1.75;;;11.10;70.00;;;;;;5125808;27;20060;-71
2022/01/04 05:16:11;;;;;;;1.80;1.33;;;11.10;70.10;;;;;;5135207;27;20072;-71
2022/01/04 05:18:36;;;;;;;2.83;1.23;;;11.10;70.10;;;;;;5136279;27;20015;-71
2022/01/04 05:21:03;;;;;;;3.17;1.60;;;11.00;69.90;;;;;;5136974;27;20038;-72
2022/01/04 05:23:29;;;;;;;4.38;1.48;;;11.00;70.00;;;;;;5136798;27;20026;-72
2022/01/04 05:25:55;;;;;;;3.90;1.40;;;11.00;70.20;;;;;;5111807;28;20050;-72
2022/01/04 05:28:21;;;;;;;5.63;1.40;;;11.00;70.10;;;;;;5130732;27;20023;-72
2022/01/04 05:30:47;;;;;;;2.17;1.38;;;11.00;70.30;;;;;;5112434;27;20463;-72
2022/01/04 05:33:12;;;;;;;3.38;1.50;;;11.00;70.30;;;;;;5127439;27;20073;-72
2022/01/04 05:35:38;;;;;;;3.55;1.50;;;11.00;70.40;;;;;;5131648;27;20125;-72
2022/01/04 05:38:04;;;;;;;3.83;1.55;;;11.00;70.50;;;;;;5114724;27;20454;-72
2022/01/04 05:40:30;;;;;;;1.77;1.10;;;11.00;70.40;;;;;;5139428;27;20034;-72
2022/01/04 05:42:55;;;;;;;3.53;1.20;;;11.00;70.50;;;;;;5109850;28;20028;-72
2022/01/04 05:45:21;;;;;;;2.95;1.50;;;11.00;70.60;;;;;;5110922;28;20019;-72
2022/01/04 05:47:47;;;;;;;4.50;1.80;;;11.00;70.80;;;;;;5113562;28;20114;-72
2022/01/04 05:50:13;;;;;;;1.70;1.30;;;11.00;70.80;;;;;;5113213;28;20430;-72
2022/01/04 05:52:39;;;;;;;1.73;1.20;;;11.00;71.00;;;;;;5130190;27;20031;-72
2022/01/04 05:55:05;;;;;;;6.80;1.40;;;11.00;70.90;;;;;;5129163;27;20050;-72
2022/01/04 05:57:32;;;;;;;3.42;1.42;;;11.00;71.10;;;;;;5117150;27;20444;-72
2022/01/04 05:59:58;;;;;;;2.10;1.20;;;11.00;71.60;;;;;;5127632;27;20019;-72
2022/01/04 06:02:24;;;;;;;2.45;1.30;;;11.00;71.60;;;;;;5136268;27;20114;-72
2022/01/04 06:04:50;;;;;;;4.35;1.50;;;11.00;71.60;;;;;;5115898;27;20027;-72
2022/01/04 06:07:15;;;;;;;3.53;1.33;;;11.00;71.60;;;;;;5136262;27;20023;-72
2022/01/04 06:09:45;;;;;;;1.95;1.20;;;11.00;71.80;;;;;;5143170;27;20490;-72
2022/01/04 06:15:01;;;;;;;3.65;1.52;;;11.00;71.70;;;;;;5134430;27;20518;-72
2022/01/04 06:17:28;;;;;;;2.78;1.50;;;11.00;72.30;;;;;;5133933;27;20043;-73
2022/01/04 06:19:55;;;;;;;2.17;1.50;;;11.00;72.10;;;;;;5131847;27;20030;-72
2022/01/04 06:22:21;;;;;;;2.28;1.55;;;11.00;72.20;;;;;;5102939;28;20490;-72
2022/01/04 06:24:47;;;;;;;2.80;1.58;;;11.00;72.30;;;;;;5131155;27;20023;-72
2022/01/04 06:27:14;;;;;;;3.42;1.70;;;11.10;72.50;;;;;;5107657;27;20033;-72
2022/01/04 06:29:41;;;;;;;1.40;1.30;;;11.10;72.70;;;;;;5123830;27;20019;-71
2022/01/04 06:32:08;;;;;;;1.45;0.95;;;11.10;72.50;;;;;;5119518;27;20050;-72
2022/01/04 06:34:34;;;;;;;2.70;1.30;;;11.10;72.50;;;;;;5110295;27;20478;-72
2022/01/04 06:37:00;;;;;;;1.83;1.40;;;11.10;72.30;;;;;;5125742;27;20073;-72
2022/01/04 06:39:26;;;;;;;1.67;1.25;;;11.10;72.40;;;;;;5132563;27;20023;-72
2022/01/04 06:41:52;;;;;;;3.38;1.60;;;11.20;72.50;;;;;;5133861;27;20027;-72
2022/01/04 06:44:18;;;;;;;3.58;1.92;;;11.20;72.60;;;;;;5138062;27;20103;-72
2022/01/04 06:46:46;;;;;;;3.80;1.73;;;11.20;72.60;;;;;;5138913;27;20038;-72
2022/01/04 06:49:16;;;;;;;2.17;1.50;;;11.20;72.50;;;;;;5127212;27;20021;-72
2022/01/04 06:51:43;;;;;;;7.93;2.20;;;11.20;72.40;;;;;;5135303;27;20023;-72
2022/01/04 06:54:10;;;;;;;3.15;1.90;;;11.20;72.30;;;;;;5132064;27;20017;-72
2022/01/04 06:56:36;;;;;;;3.05;1.75;;;11.20;72.30;;;;;;5139701;27;20029;-72
2022/01/04 06:59:03;;;;;;;2.45;1.88;;;11.20;72.40;;;;;;5133094;27;20015;-73
2022/01/04 07:01:29;;;;;;;2.88;1.90;;;11.20;72.80;;;;;;5117144;27;20088;-72
2022/01/04 07:03:55;;;;;;;2.58;1.50;;;11.20;72.60;;;;;;5135366;27;20095;-73
2022/01/04 07:06:21;;;;;;;2.95;1.33;;;11.20;72.60;;;;;;5136145;27;20019;-73
2022/01/04 07:08:47;;;;;;;2.53;1.45;;;11.20;72.50;;;;;;5116930;27;20075;-73
2022/01/04 07:11:19;;;;;;;2.90;1.80;;;11.20;72.60;;;;;;5139701;27;20027;-73
2022/01/04 07:13:51;;;;;;;3.95;1.70;;;11.20;72.60;;;;;;5139553;27;20027;-73
2022/01/04 07:16:17;;;;;;;2.03;1.67;;;11.20;72.60;;;;;;5143499;27;20046;-72
2022/01/04 07:18:48;;;;;;;3.03;1.50;;;11.30;73.20;;;;;;5133369;27;20100;-72
2022/01/04 07:21:15;;;;;;;2.85;1.52;;;11.30;72.90;;;;;;5123170;27;20454;-72
2022/01/04 07:23:42;;;;;;;3.30;1.20;;;11.30;72.90;;;;;;5106329;27;20364;-72
2022/01/04 07:26:11;;;;;;;1.30;1.20;;;11.30;73.00;;;;;;5104593;27;20032;-71
2022/01/04 07:28:39;;;;;;;1.23;1.13;;;11.30;73.10;;;;;;5102409;27;20406;-71
2022/01/04 07:31:04;;;;;;;1.65;1.13;;;11.40;73.30;;;;;;5140124;27;20501;-70
2022/01/04 07:33:30;;;;;;;1.48;1.02;;;11.40;73.10;;;;;;5137108;27;20119;-71
2022/01/04 07:35:56;;;;;;;1.98;1.42;;;11.40;73.50;;;;;;5132349;27;20096;-71
2022/01/04 07:38:22;;;;;;;2.03;1.17;;;11.40;73.20;;;;;;5117504;27;20015;-70
2022/01/04 07:40:47;;;;;;;2.47;1.52;;;11.40;73.60;;;;;;5103234;27;20472;-71
2022/01/04 07:43:14;;;;;;;1.80;1.38;;;11.50;73.50;;;;;;5135173;27;20041;-71
2022/01/04 07:45:40;;;;;;;3.67;1.20;;;11.50;73.60;;;;;;5134413;27;20046;-71
2022/01/04 07:48:10;;;;;;;1.48;1.17;;;11.50;73.50;;;;;;5128954;27;20028;-71
2022/01/04 07:50:40;;;;;;;1.20;1.10;;;11.60;73.60;;;;;;5110917;27;20413;-71
2022/01/04 07:53:07;;;;;;;1.77;1.30;;;11.60;73.70;;;;;;5109597;27;20036;-71
2022/01/04 07:55:35;;;;;;;1.65;1.10;;;11.70;73.90;;;;;;5118820;27;20076;-72
2022/01/04 07:58:04;;;;;;;1.80;1.17;;;11.70;73.90;;;;;;5127510;27;20035;-71
2022/01/04 08:00:30;;;;;;;1.48;1.00;;;11.70;73.70;;;;;;5111323;27;20031;-71
2022/01/04 08:02:55;;;;;;;1.88;1.23;;;11.70;73.50;;;;;;5130794;27;20034;-70
2022/01/04 08:05:22;;;;;;;1.67;1.13;;;11.70;73.60;;;;;;5117018;27;20137;-70
2022/01/04 08:07:50;;;;;;;1.30;1.20;;;11.80;73.70;;;;;;5104051;27;20023;-71
2022/01/04 08:10:17;;;;;;;2.08;1.70;;;11.80;73.70;;;;;;5113593;27;20031;-70
2022/01/04 08:12:43;;;;;;;1.42;1.33;;;11.80;74.10;;;;;;5122912;27;20037;-69
2022/01/04 08:15:09;;;;;;;1.50;1.10;;;11.90;73.80;;;;;;5123697;27;20797;-69
2022/01/04 08:17:39;;;;;;;1.27;0.93;;;11.90;73.70;;;;;;5134541;27;20075;-70
2022/01/04 08:20:06;;;;;;;1.10;0.98;;;11.90;73.80;;;;;;5108752;27;20390;-71
2022/01/04 08:22:32;;;;;;;1.73;1.60;;;11.90;74.20;;;;;;5126761;27;20039;-72
2022/01/04 08:25:03;;;;;;;2.50;1.10;;;12.00;73.90;;;;;;5129262;27;20107;-71
2022/01/04 08:27:29;;;;;;;2.47;1.40;;;12.00;74.30;;;;;;5111242;27;20020;-71
2022/01/04 08:29:56;;;;;;;3.40;1.10;;;12.00;73.90;;;;;;5113821;27;20085;-71
2022/01/04 08:32:22;;;;;;;2.20;1.20;;;12.00;73.90;;;;;;5126360;27;20049;-71
2022/01/04 08:34:49;;;;;;;1.55;1.20;;;12.10;74.00;;;;;;5122852;27;20479;-71
2022/01/04 08:37:15;;;;;;;2.03;1.40;;;12.10;73.90;;;;;;5133006;27;20490;-71
2022/01/04 08:39:41;;;;;;;1.63;1.20;;;12.10;74.10;;;;;;5137079;27;20068;-72
2022/01/04 08:42:06;;;;;;;2.00;1.40;;;12.10;73.80;;;;;;5126517;27;20028;-71
2022/01/04 08:44:33;;;;;;;2.50;1.20;;;12.20;73.90;;;;;;5131120;27;20558;-71
2022/01/04 08:46:59;;;;;;;1.80;1.30;;;12.20;74.00;;;;;;5132782;27;20076;-72
2022/01/04 08:49:25;;;;;;;2.47;1.25;;;12.20;74.70;;;;;;5117675;27;20029;-73
2022/01/04 08:51:51;;;;;;;4.93;1.40;;;12.20;74.10;;;;;;5125907;27;20083;-72
2022/01/04 08:54:17;;;;;;;2.10;1.25;;;12.30;74.20;;;;;;5127421;27;20029;-71
2022/01/04 08:56:43;;;;;;;1.60;1.20;;;12.30;74.00;;;;;;5106639;27;20391;-72
2022/01/04 08:59:10;;;;;;;2.20;1.30;;;12.30;74.20;;;;;;5112209;27;20034;-72
2022/01/04 09:01:36;;;;;;;3.25;1.25;;;12.40;74.00;;;;;;5113533;27;20118;-72
2022/01/04 09:04:02;;;;;;;2.97;1.20;;;12.40;74.10;;;;;;5132669;27;20486;-73
2022/01/04 09:06:28;;;;;;;1.38;1.10;;;12.40;74.00;;;;;;5134600;27;20031;-73
2022/01/04 09:08:56;;;;;;;2.85;1.20;;;12.50;74.10;;;;;;5133808;27;20035;-72
2022/01/04 09:11:25;;;;;;;1.92;1.30;;;12.50;74.30;;;;;;5125493;27;20023;-71
2022/01/04 09:13:56;;;;;;;5.22;1.48;;;12.50;74.00;;;;;;5136745;27;20034;-71
2022/01/04 09:19:06;;;;;;;2.20;1.25;;;12.50;73.80;;;;;;5137977;27;20037;-71
2022/01/04 09:21:31;;;;;;;1.15;1.00;;;12.60;73.80;;;;;;5134852;27;20047;-71
2022/01/04 09:24:01;;;;;;;2.00;0.90;;;12.60;74.00;;;;;;5143917;27;20070;-71
2022/01/04 09:26:28;;;;;;;3.13;1.20;;;12.60;74.10;;;;;;5116836;27;20035;-71
2022/01/04 09:28:55;;;;;;;1.30;1.20;;;12.60;73.70;;;;;;5129908;27;20019;-73
2022/01/04 09:31:22;;;;;;;1.73;1.15;;;12.70;73.70;;;;;;5135331;27;20482;-73
2022/01/04 09:33:49;;;;;;;1.33;1.05;;;12.70;73.70;;;;;;5125952;27;20460;-72
2022/01/04 09:36:16;;;;;;;2.15;1.02;;;12.70;73.60;;;;;;5098523;28;20380;-72
2022/01/04 09:38:42;;;;;;;1.80;0.90;;;12.80;73.70;;;;;;5116677;28;20022;-73
2022/01/04 09:41:07;;;;;;;1.65;1.20;;;12.80;73.70;;;;;;5124590;27;20035;-72
2022/01/04 09:43:33;;;;;;;9.57;1.17;;;12.80;73.50;;;;;;5114832;27;20076;-71
2022/01/04 09:46:00;;;;;;;3.10;1.10;;;12.80;73.50;;;;;;5121238;27;20391;-72
2022/01/04 09:48:27;;;;;;;2.40;1.10;;;12.90;73.50;;;;;;5127129;27;20023;-71
2022/01/04 09:50:56;;;;;;;4.40;1.20;;;12.90;73.40;;;;;;5116035;27;20118;-71
2022/01/04 09:53:23;;;;;;;3.47;1.20;;;12.90;73.50;;;;;;5109030;28;20023;-71
2022/01/04 09:55:54;;;;;;;1.42;1.10;;;12.90;73.40;;;;;;5113668;27;20027;-71
2022/01/04 09:58:23;;;;;;;3.17;1.05;;;13.00;73.50;;;;;;5126983;27;20045;-71
2022/01/04 10:00:50;;;;;;;3.92;1.35;;;13.00;73.50;;;;;;5126379;27;20043;-71
2022/01/04 10:03:25;;;;;;;4.15;1.25;;;13.00;73.40;;;;;;5128287;27;20065;-71
2022/01/04 10:06:01;;;;;;;1.85;1.30;;;13.10;73.40;;;;;;5125374;27;20019;-71
2022/01/04 10:08:27;;;;;;;3.78;1.38;;;13.10;73.80;;;;;;5120543;27;20451;-71
2022/01/04 10:11:02;;;;;;;2.22;1.42;;;13.10;73.60;;;;;;5123112;27;20027;-71
2022/01/04 10:13:30;;;;;;;2.45;1.30;;;13.10;73.80;;;;;;5120298;27;20030;-71
2022/01/04 10:15:56;;;;;;;1.88;1.23;;;13.10;73.70;;;;;;5137538;27;20072;-71
2022/01/04 10:18:24;;;;;;;2.17;1.20;;;13.10;73.50;;;;;;5149689;27;20023;-71
2022/01/04 10:21:01;;;;;;;3.80;1.45;;;13.20;73.70;;;;;;5137520;27;20210;-71
2022/01/04 10:23:28;;;;;;;2.03;1.10;;;13.20;74.00;;;;;;5135459;27;20156;-71
2022/01/04 10:26:07;;;;;;;3.15;1.50;;;13.20;73.70;;;;;;5127053;27;20023;-71
2022/01/04 10:28:36;;;;;;;5.28;1.90;;;13.20;74.90;;;;;;5128024;27;20039;-71
2022/01/04 10:31:04;;;;;;;3.35;1.70;;;13.20;74.20;;;;;;5125409;27;20495;-71
2022/01/04 10:33:31;;;;;;;3.03;1.60;;;13.30;74.00;;;;;;5122833;27;20084;-71
2022/01/04 10:35:58;;;;;;;3.10;1.50;;;13.20;74.10;;;;;;5132440;27;20038;-70
2022/01/04 10:38:29;;;;;;;1.75;1.23;;;13.30;74.20;;;;;;5121557;27;20107;-72
2022/01/04 10:41:01;;;;;;;5.85;1.50;;;13.30;74.40;;;;;;5128161;27;20023;-71
2022/01/04 10:43:30;;;;;;;2.78;1.13;;;13.30;74.50;;;;;;5130556;27;20470;-71
2022/01/04 10:45:57;;;;;;;3.45;1.48;;;13.40;74.50;;;;;;5134501;27;20026;-71
2022/01/04 10:48:29;;;;;;;3.08;1.50;;;13.50;74.50;;;;;;5110340;27;20106;-71
2022/01/04 10:51:22;;;;;;;3.85;1.50;;;13.50;74.40;;;;;;5120451;27;20015;-71
2022/01/04 10:53:50;;;;;;;2.20;1.20;;;13.50;74.60;;;;;;5117245;27;20031;-71
2022/01/04 10:56:28;;;;;;;4.63;1.58;;;13.60;74.10;;;;;;5103418;27;20475;-71
2022/01/04 10:58:56;;;;;;;3.10;1.35;;;13.60;74.30;;;;;;5130612;27;20020;-71
2022/01/04 11:01:25;;;;;;;3.20;1.48;;;13.60;74.20;;;;;;5110851;27;20043;-71
2022/01/04 11:03:59;;;;;;;2.38;1.50;;;13.60;74.30;;;;;;5123790;27;20016;-73
2022/01/04 11:06:33;;;;;;;2.90;1.50;;;13.70;74.10;;;;;;5130333;27;20359;-72
2022/01/04 11:08:59;;;;;;;2.53;1.35;;;13.70;74.00;;;;;;5144894;27;20022;-73
2022/01/04 11:11:26;;;;;;;4.18;1.65;;;13.70;74.00;;;;;;5115985;28;20024;-72
2022/01/04 11:13:52;;;;;;;2.17;1.58;;;13.80;74.10;;;;;;5097391;28;20019;-73
2022/01/04 11:16:22;;;;;;;3.20;1.20;;;13.80;74.00;;;;;;5118760;27;20083;-73
2022/01/04 11:18:50;;;;;;;2.58;1.45;;;13.80;73.90;;;;;;5142226;27;20371;-72
2022/01/04 11:21:24;;;;;;;2.28;1.20;;;13.80;73.90;;;;;;5156813;27;20541;-72
2022/01/04 11:23:52;;;;;;;2.57;1.40;;;13.80;73.70;;;;;;5102767;27;20437;-73
2022/01/04 11:26:19;;;;;;;2.38;1.38;;;13.80;73.50;;;;;;5087486;27;20378;-73
2022/01/04 11:28:50;;;;;;;2.53;1.60;;;13.80;73.60;;;;;;5109267;27;20042;-72
2022/01/04 11:31:35;;;;;;;3.28;1.50;;;13.80;73.80;;;;;;5113749;27;20048;-73
2022/01/04 11:34:09;;;;;;;3.28;1.50;;;13.80;73.70;;;;;;5110217;27;20020;-72
2022/01/04 11:36:37;;;;;;;2.10;1.20;;;13.80;73.70;;;;;;5111052;27;20019;-72
2022/01/04 11:39:29;;;;;;;1.50;1.00;;;13.80;73.50;;;;;;5111953;27;20031;-72
2022/01/04 11:41:56;;;;;;;4.57;1.50;;;13.80;73.70;;;;;;5107976;27;20071;-73
2022/01/04 11:44:24;;;;;;;2.97;1.70;;;13.80;73.30;;;;;;5107861;27;20024;-73
2022/01/04 11:47:09;;;;;;;3.08;1.90;;;13.90;73.30;;;;;;5109855;27;20027;-73
2022/01/04 11:49:38;;;;;;;2.22;1.50;;;13.90;73.40;;;;;;5114142;27;20038;-73
2022/01/04 11:52:06;;;;;;;3.10;1.80;;;13.90;73.10;;;;;;5093918;27;20031;-73
2022/01/04 11:54:33;;;;;;;4.55;1.90;;;13.90;73.00;;;;;;5113135;27;20023;-73
2022/01/04 11:57:08;;;;;;;2.60;1.65;;;13.90;73.00;;;;;;5107247;28;20047;-73
2022/01/04 11:59:37;;;;;;;2.17;1.50;;;13.90;73.20;;;;;;5128415;27;20038;-73
2022/01/04 12:02:24;;;;;;;2.05;1.48;;;13.90;73.00;;;;;;5115283;27;20059;-73
2022/01/04 12:04:57;;;;;;;4.25;1.88;;;13.90;73.10;;;;;;5135198;27;20482;-73
2022/01/04 12:07:42;;;;;;;5.00;2.28;;;13.90;73.10;;;;;;5135384;27;20051;-73
2022/01/04 12:10:20;;;;;;;6.57;1.98;;;13.90;73.40;;;;;;5135242;27;20016;-73
2022/01/04 12:13:01;;;;;;;3.22;2.00;;;13.90;73.30;;;;;;5135320;27;20106;-73
2022/01/04 12:15:33;;;;;;;4.30;2.05;;;13.80;73.30;;;;;;5114457;28;20020;-72
2022/01/04 12:18:06;;;;;;;3.70;1.98;;;13.80;73.30;;;;;;5116379;27;20078;-73
2022/01/04 12:20:56;;;;;;;3.88;2.05;;;13.80;73.50;;;;;;5121749;27;20487;-73
2022/01/04 12:23:35;;;;;;;3.72;2.20;;;13.80;73.80;;;;;;5115419;27;20039;-73
2022/01/04 12:28:44;;;;;;;7.13;2.40;;;13.80;73.50;;;;;;5114186;28;20032;-73
2022/01/04 12:31:13;;;;;;;4.00;2.10;;;13.80;73.90;;;;;;5087731;28;20046;-73
2022/01/04 12:33:41;;;;;;;4.97;2.33;;;13.80;74.00;;;;;;5087578;28;20036;-73
2022/01/04 12:36:07;;;;;;;2.30;1.73;;;13.70;74.00;;;;;;5088526;28;20020;-73
2022/01/04 12:38:34;;;;;;;3.30;1.85;;;13.80;73.90;;;;;;5094229;28;20096;-73
2022/01/04 12:41:06;;;;;;;5.68;2.00;;;13.80;74.10;;;;;;5085193;28;20035;-73
2022/01/04 12:43:32;;;;;;;3.42;1.98;;;13.80;74.00;;;;;;5087844;28;20047;-72
2022/01/04 12:46:02;;;;;;;4.22;2.08;;;13.80;74.10;;;;;;5087501;28;20028;-73
2022/01/04 12:48:49;;;;;;;3.78;2.00;;;13.80;73.80;;;;;;5090205;28;20114;-73
2022/01/04 12:51:22;;;;;;;2.63;1.90;;;13.70;74.70;;;;;;5090961;28;21574;-74
2022/01/04 12:53:47;;;;;;;2.28;1.70;;;13.70;74.20;;;;;;5099923;28;20032;-73
2022/01/04 12:56:13;;;;;;;3.28;1.50;;;13.70;73.80;;;;;;5113661;28;20525;-73
2022/01/04 12:58:39;;;;;;;3.83;1.77;;;13.70;73.80;;;;;;5113640;28;20072;-73
2022/01/04 13:01:04;;;;;;;2.78;1.58;;;13.70;73.80;;;;;;5113588;28;20089;-73
2022/01/04 13:03:33;;;;;;;2.50;1.50;;;13.70;73.90;;;;;;5113472;28;20073;-73